MDLR - La Romana
MDLR 080300Z 00000KT 9999 FEW016CB FEW017 BKN300 24/24 Q1015 CB/W
Observed:
visibility:
Flight Rules:
Cloud Levels:
Temperature:
Humidity:
Pressure: